Portada
METAR-TAF:

METAR-TAF

Aeroports :

Foz do Iguaçu, Paranà, Brasil

latitud: 25-31S, longitud: 054-35W, altitud: 180 m

Observació

L'informe es va fer fa 38 minuts, a les 23:00 UTC
Vent 4 kt del Oest/Sud-Oest
Temperatura 20°C
Humitat 88%
Pressió 1008 hPa
Visibilitat 10 km o més
sense núvols per sota de 1500 mi sense presència de cumulonimbus.

METAR: SBFI 172300Z 25004KT CAVOK 20/18 Q1008

Hora: 20:38 (23:38 UTC)

Pronòstic

L'informe es va fer fa 7 hores i 38 minuts, a les 16:00 UTC
Pronòstic vàlid del 17 a les 18 UTC al 18 a les 18 UTC
Vent 8 kt del Nord
Visibilitat 10 km o més
sense núvols per sota de 1500 mi sense presència de cumulonimbus.
Evolucionant progressivament
l' 17 a les 21 UTC al 17 a les 23 UTC
Vent 8 kt del Est

TAF: SBFI 171600Z 1718/1818 01008KT CAVOK TX37/1718Z TN23/1808Z BECMG 1721/1723 08008KT RMK PFN

Observacions i pronòstics meteorològics de més de 4000 aeroports (METAR i TAF).

Les estacions disponibles són els punts grocs i vermells al mapa.

Posi el ratolí al punt desitjat per veure el nom de l'estació.

Feu clic per veure les observacions i els pronòstics meteorològics.

Per canviar el mapa: feu clic els botons verds amb una creu de color negre per apropar; al botó verd amb un guió per allunyar la imatge; o en les fletxes verdes per a mapes adjacents.


METAR-TAF: